aviador You're here:

FALE Decoded Metar

KING SHAKA INT ARPT in SOUTH AFRICA
Report Time2017-08-22 16:00:00
UTC Time2017-08-22 16:38:37
Flight Rules vfr VFR
Wind180° at 16 Gusting to 26 kt
W.Decomp.*RWY 24: 12.9 kt HW 9.4 kt LCW
W.Rank180° ranks 9
Current wind is above 180° avg. (10.9)
Visibility9999 m
Phenomena:N/A
Clouds:Scattered 032 Hf
Broken 040 Hf
Broken 049 Hf
Expected CloudBase > 3,600 ft AGL from Temp-Dew spread
Ceiling4,000 ft
Temp18°C (ISA +4)
Dew Point09°C (56% RH)
AAT12.0°C
QNH1010 hPa
Density Alt974 ft
Elevation295 ft
Report Wrong Elevation
Raw Report
METAR FALE 221600Z 18016G26KT 9999 SCT032 BKN040 BKN049 18/09 Q1010
NOSIG=

Extra information for FALE:More info

Metar Taf Metar & Taf Last 4 Metars F.Rules Stats Wind Profile Meteogram Temp Stats Airport Information Weather charts Add Link Nearby VenuesMetar ALERT Operation Metar Decoded Social comments